sensor_id;sensor_type;location;lat;lon;timestamp;P1;durP1;ratioP1;P2;durP2;ratioP2
70459;SDS011;57920;54.796;9.430;2022-11-20T00:02:15;1.10;;;1.00;;
70459;SDS011;57920;54.796;9.430;2022-11-20T00:04:40;1.90;;;1.03;;
70459;SDS011;57920;54.796;9.430;2022-11-20T00:07:06;1.17;;;0.93;;
70459;SDS011;57920;54.796;9.430;2022-11-20T00:09:33;1.70;;;0.80;;
70459;SDS011;57920;54.796;9.430;2022-11-20T00:11:59;1.63;;;1.00;;
70459;SDS011;57920;54.796;9.430;2022-11-20T00:14:24;0.57;;;0.57;;
70459;SDS011;57920;54.796;9.430;2022-11-20T00:16:50;2.07;;;1.23;;
70459;SDS011;57920;54.796;9.430;2022-11-20T00:19:15;1.30;;;1.20;;
70459;SDS011;57920;54.796;9.430;2022-11-20T00:21:41;1.00;;;0.90;;
70459;SDS011;57920;54.796;9.430;2022-11-20T00:24:10;1.20;;;1.10;;
70459;SDS011;57920;54.796;9.430;2022-11-20T00:26:35;2.27;;;1.00;;
70459;SDS011;57920;54.796;9.430;2022-11-20T00:29:01;0.43;;;0.43;;
70459;SDS011;57920;54.796;9.430;2022-11-20T00:31:27;1.40;;;0.87;;
70459;SDS011;57920;54.796;9.430;2022-11-20T00:33:52;1.20;;;1.00;;
70459;SDS011;57920;54.796;9.430;2022-11-20T00:36:19;1.40;;;0.90;;
70459;SDS011;57920;54.796;9.430;2022-11-20T00:38:46;2.07;;;1.10;;
70459;SDS011;57920;54.796;9.430;2022-11-20T00:41:15;2.07;;;1.10;;
70459;SDS011;57920;54.796;9.430;2022-11-20T00:43:41;0.70;;;0.70;;
70459;SDS011;57920;54.796;9.430;2022-11-20T00:46:08;0.87;;;0.80;;
70459;SDS011;57920;54.796;9.430;2022-11-20T00:48:35;1.10;;;0.77;;
70459;SDS011;57920;54.796;9.430;2022-11-20T00:51:01;0.73;;;0.70;;
70459;SDS011;57920;54.796;9.430;2022-11-20T00:53:27;1.80;;;1.10;;
70459;SDS011;57920;54.796;9.430;2022-11-20T00:55:56;1.03;;;0.77;;
70459;SDS011;57920;54.796;9.430;2022-11-20T00:58:22;0.77;;;0.73;;
70459;SDS011;57920;54.796;9.430;2022-11-20T01:00:49;0.73;;;0.63;;
70459;SDS011;57920;54.796;9.430;2022-11-20T01:03:18;1.50;;;0.80;;
70459;SDS011;57920;54.796;9.430;2022-11-20T01:05:44;1.93;;;0.93;;
70459;SDS011;57920;54.796;9.430;2022-11-20T01:08:10;0.80;;;0.73;;
70459;SDS011;57920;54.796;9.430;2022-11-20T01:10:35;0.97;;;0.87;;
70459;SDS011;57920;54.796;9.430;2022-11-20T01:13:01;1.83;;;0.77;;
70459;SDS011;57920;54.796;9.430;2022-11-20T01:15:45;1.70;;;0.87;;
70459;SDS011;57920;54.796;9.430;2022-11-20T01:18:11;1.60;;;0.93;;
70459;SDS011;57920;54.796;9.430;2022-11-20T01:20:36;1.00;;;0.90;;
70459;SDS011;57920;54.796;9.430;2022-11-20T01:23:02;1.23;;;0.90;;
70459;SDS011;57920;54.796;9.430;2022-11-20T01:25:28;1.50;;;0.77;;
70459;SDS011;57920;54.796;9.430;2022-11-20T01:27:54;1.07;;;0.90;;
70459;SDS011;57920;54.796;9.430;2022-11-20T01:30:20;0.83;;;0.70;;
70459;SDS011;57920;54.796;9.430;2022-11-20T01:32:46;1.57;;;0.70;;
70459;SDS011;57920;54.796;9.430;2022-11-20T01:35:11;1.30;;;0.80;;
70459;SDS011;57920;54.796;9.430;2022-11-20T01:37:37;0.50;;;0.50;;
70459;SDS011;57920;54.796;9.430;2022-11-20T01:40:02;0.60;;;0.60;;
70459;SDS011;57920;54.796;9.430;2022-11-20T01:42:28;1.20;;;0.80;;
70459;SDS011;57920;54.796;9.430;2022-11-20T01:48:15;0.60;;;0.60;;
70459;SDS011;57920;54.796;9.430;2022-11-20T01:50:43;1.57;;;0.90;;
70459;SDS011;57920;54.796;9.430;2022-11-20T01:53:10;1.50;;;1.10;;
70459;SDS011;57920;54.796;9.430;2022-11-20T01:55:40;1.33;;;1.00;;
70459;SDS011;57920;54.796;9.430;2022-11-20T01:58:10;1.00;;;0.90;;
70459;SDS011;57920;54.796;9.430;2022-11-20T02:00:36;0.70;;;0.60;;
70459;SDS011;57920;54.796;9.430;2022-11-20T02:03:06;1.70;;;0.67;;
70459;SDS011;57920;54.796;9.430;2022-11-20T02:08:11;1.87;;;0.77;;
70459;SDS011;57920;54.796;9.430;2022-11-20T02:10:38;1.33;;;0.90;;
70459;SDS011;57920;54.796;9.430;2022-11-20T02:13:04;1.17;;;0.90;;
70459;SDS011;57920;54.796;9.430;2022-11-20T02:15:48;1.47;;;0.63;;
70459;SDS011;57920;54.796;9.430;2022-11-20T02:18:16;1.03;;;0.63;;
70459;SDS011;57920;54.796;9.430;2022-11-20T02:20:44;0.70;;;0.70;;
70459;SDS011;57920;54.796;9.430;2022-11-20T02:23:12;1.40;;;0.87;;
70459;SDS011;57920;54.796;9.430;2022-11-20T02:25:52;0.90;;;0.50;;
70459;SDS011;57920;54.796;9.430;2022-11-20T02:28:19;0.63;;;0.60;;
70459;SDS011;57920;54.796;9.430;2022-11-20T02:30:45;1.90;;;0.63;;
70459;SDS011;57920;54.796;9.430;2022-11-20T02:33:10;1.80;;;0.90;;
70459;SDS011;57920;54.796;9.430;2022-11-20T02:35:41;0.30;;;0.30;;
70459;SDS011;57920;54.796;9.430;2022-11-20T02:38:08;1.40;;;0.67;;
70459;SDS011;57920;54.796;9.430;2022-11-20T02:40:34;0.87;;;0.80;;
70459;SDS011;57920;54.796;9.430;2022-11-20T02:43:00;1.27;;;0.70;;
70459;SDS011;57920;54.796;9.430;2022-11-20T02:45:26;0.67;;;0.60;;
70459;SDS011;57920;54.796;9.430;2022-11-20T02:47:51;0.97;;;0.70;;
70459;SDS011;57920;54.796;9.430;2022-11-20T02:50:17;0.73;;;0.67;;
70459;SDS011;57920;54.796;9.430;2022-11-20T02:52:43;0.87;;;0.70;;
70459;SDS011;57920;54.796;9.430;2022-11-20T02:55:09;0.90;;;0.70;;
70459;SDS011;57920;54.796;9.430;2022-11-20T02:57:35;0.80;;;0.63;;
70459;SDS011;57920;54.796;9.430;2022-11-20T03:00:00;0.53;;;0.53;;
70459;SDS011;57920;54.796;9.430;2022-11-20T03:02:31;0.73;;;0.73;;
70459;SDS011;57920;54.796;9.430;2022-11-20T03:04:57;1.77;;;0.60;;
70459;SDS011;57920;54.796;9.430;2022-11-20T03:07:22;1.00;;;0.50;;
70459;SDS011;57920;54.796;9.430;2022-11-20T03:09:48;2.30;;;0.70;;
70459;SDS011;57920;54.796;9.430;2022-11-20T03:12:14;1.33;;;0.70;;
70459;SDS011;57920;54.796;9.430;2022-11-20T03:14:39;2.00;;;0.50;;
70459;SDS011;57920;54.796;9.430;2022-11-20T03:17:05;0.80;;;0.70;;
70459;SDS011;57920;54.796;9.430;2022-11-20T03:19:31;0.43;;;0.40;;
70459;SDS011;57920;54.796;9.430;2022-11-20T03:21:57;1.10;;;0.70;;
70459;SDS011;57920;54.796;9.430;2022-11-20T03:24:22;0.77;;;0.60;;
70459;SDS011;57920;54.796;9.430;2022-11-20T03:26:48;0.60;;;0.60;;
70459;SDS011;57920;54.796;9.430;2022-11-20T03:29:13;0.43;;;0.43;;
70459;SDS011;57920;54.796;9.430;2022-11-20T03:31:39;0.60;;;0.60;;
70459;SDS011;57920;54.796;9.430;2022-11-20T03:34:06;0.50;;;0.47;;
70459;SDS011;57920;54.796;9.430;2022-11-20T03:36:33;1.27;;;0.60;;
70459;SDS011;57920;54.796;9.430;2022-11-20T03:38:58;0.50;;;0.50;;
70459;SDS011;57920;54.796;9.430;2022-11-20T03:41:25;1.53;;;0.70;;
70459;SDS011;57920;54.796;9.430;2022-11-20T03:43:56;0.47;;;0.40;;
70459;SDS011;57920;54.796;9.430;2022-11-20T03:46:23;0.70;;;0.50;;
70459;SDS011;57920;54.796;9.430;2022-11-20T03:48:50;0.97;;;0.60;;
70459;SDS011;57920;54.796;9.430;2022-11-20T03:51:20;0.77;;;0.70;;
70459;SDS011;57920;54.796;9.430;2022-11-20T03:53:48;0.40;;;0.40;;
70459;SDS011;57920;54.796;9.430;2022-11-20T03:56:15;0.50;;;0.50;;
70459;SDS011;57920;54.796;9.430;2022-11-20T03:58:43;0.63;;;0.60;;
70459;SDS011;57920;54.796;9.430;2022-11-20T04:01:13;0.87;;;0.47;;
70459;SDS011;57920;54.796;9.430;2022-11-20T04:03:46;1.30;;;0.70;;
70459;SDS011;57920;54.796;9.430;2022-11-20T04:06:16;1.23;;;0.40;;
70459;SDS011;57920;54.796;9.430;2022-11-20T04:08:46;0.40;;;0.30;;
70459;SDS011;57920;54.796;9.430;2022-11-20T04:11:13;0.60;;;0.60;;
70459;SDS011;57920;54.796;9.430;2022-11-20T04:13:45;0.60;;;0.40;;
70459;SDS011;57920;54.796;9.430;2022-11-20T04:16:17;0.40;;;0.40;;
70459;SDS011;57920;54.796;9.430;2022-11-20T04:18:43;0.50;;;0.47;;
70459;SDS011;57920;54.796;9.430;2022-11-20T04:21:09;0.77;;;0.63;;
70459;SDS011;57920;54.796;9.430;2022-11-20T04:23:35;0.50;;;0.50;;
70459;SDS011;57920;54.796;9.430;2022-11-20T04:26:02;0.50;;;0.50;;
70459;SDS011;57920;54.796;9.430;2022-11-20T04:28:36;0.50;;;0.50;;
70459;SDS011;57920;54.796;9.430;2022-11-20T04:31:09;0.70;;;0.50;;
70459;SDS011;57920;54.796;9.430;2022-11-20T04:33:42;0.57;;;0.50;;
70459;SDS011;57920;54.796;9.430;2022-11-20T04:36:12;0.80;;;0.50;;
70459;SDS011;57920;54.796;9.430;2022-11-20T04:38:39;1.07;;;0.60;;
70459;SDS011;57920;54.796;9.430;2022-11-20T04:41:06;0.30;;;0.30;;
70459;SDS011;57920;54.796;9.430;2022-11-20T04:43:33;0.47;;;0.47;;
70459;SDS011;57920;54.796;9.430;2022-11-20T04:45:59;0.77;;;0.50;;
70459;SDS011;57920;54.796;9.430;2022-11-20T04:48:25;0.30;;;0.30;;
70459;SDS011;57920;54.796;9.430;2022-11-20T04:50:52;0.97;;;0.23;;
70459;SDS011;57920;54.796;9.430;2022-11-20T04:53:18;0.40;;;0.40;;
70459;SDS011;57920;54.796;9.430;2022-11-20T04:55:44;0.30;;;0.30;;
70459;SDS011;57920;54.796;9.430;2022-11-20T04:58:10;1.67;;;0.80;;
70459;SDS011;57920;54.796;9.430;2022-11-20T05:00:36;0.60;;;0.40;;
70459;SDS011;57920;54.796;9.430;2022-11-20T05:03:02;0.80;;;0.40;;
70459;SDS011;57920;54.796;9.430;2022-11-20T05:05:27;0.90;;;0.40;;
70459;SDS011;57920;54.796;9.430;2022-11-20T05:07:55;0.43;;;0.30;;
70459;SDS011;57920;54.796;9.430;2022-11-20T05:10:21;0.30;;;0.30;;
70459;SDS011;57920;54.796;9.430;2022-11-20T05:12:46;0.50;;;0.50;;
70459;SDS011;57920;54.796;9.430;2022-11-20T05:15:12;0.23;;;0.23;;
70459;SDS011;57920;54.796;9.430;2022-11-20T05:17:38;0.30;;;0.30;;
70459;SDS011;57920;54.796;9.430;2022-11-20T05:20:03;0.50;;;0.40;;
70459;SDS011;57920;54.796;9.430;2022-11-20T05:22:29;0.43;;;0.40;;
70459;SDS011;57920;54.796;9.430;2022-11-20T05:24:55;0.50;;;0.50;;
70459;SDS011;57920;54.796;9.430;2022-11-20T05:27:20;1.20;;;0.40;;
70459;SDS011;57920;54.796;9.430;2022-11-20T05:29:46;0.40;;;0.40;;
70459;SDS011;57920;54.796;9.430;2022-11-20T05:32:11;0.20;;;0.20;;
70459;SDS011;57920;54.796;9.430;2022-11-20T05:34:37;0.30;;;0.30;;
70459;SDS011;57920;54.796;9.430;2022-11-20T05:37:02;1.17;;;0.40;;
70459;SDS011;57920;54.796;9.430;2022-11-20T05:39:28;0.37;;;0.20;;
70459;SDS011;57920;54.796;9.430;2022-11-20T05:41:53;0.37;;;0.30;;
70459;SDS011;57920;54.796;9.430;2022-11-20T05:44:38;0.60;;;0.50;;
70459;SDS011;57920;54.796;9.430;2022-11-20T05:47:04;0.40;;;0.30;;
70459;SDS011;57920;54.796;9.430;2022-11-20T05:49:30;0.37;;;0.37;;
70459;SDS011;57920;54.796;9.430;2022-11-20T05:51:55;0.50;;;0.37;;
70459;SDS011;57920;54.796;9.430;2022-11-20T05:54:21;0.70;;;0.60;;
70459;SDS011;57920;54.796;9.430;2022-11-20T05:56:46;0.50;;;0.50;;
70459;SDS011;57920;54.796;9.430;2022-11-20T05:59:12;0.40;;;0.23;;
70459;SDS011;57920;54.796;9.430;2022-11-20T06:01:38;0.30;;;0.30;;
70459;SDS011;57920;54.796;9.430;2022-11-20T06:04:03;0.53;;;0.33;;
70459;SDS011;57920;54.796;9.430;2022-11-20T06:06:29;0.30;;;0.30;;
70459;SDS011;57920;54.796;9.430;2022-11-20T06:08:54;0.40;;;0.40;;
70459;SDS011;57920;54.796;9.430;2022-11-20T06:11:20;0.30;;;0.30;;
70459;SDS011;57920;54.796;9.430;2022-11-20T06:13:46;1.23;;;0.37;;
70459;SDS011;57920;54.796;9.430;2022-11-20T06:16:14;1.10;;;0.30;;
70459;SDS011;57920;54.796;9.430;2022-11-20T06:18:41;1.00;;;0.30;;
70459;SDS011;57920;54.796;9.430;2022-11-20T06:21:11;0.50;;;0.40;;
70459;SDS011;57920;54.796;9.430;2022-11-20T06:23:38;0.43;;;0.30;;
70459;SDS011;57920;54.796;9.430;2022-11-20T06:26:09;0.47;;;0.40;;
70459;SDS011;57920;54.796;9.430;2022-11-20T06:28:36;0.40;;;0.40;;
70459;SDS011;57920;54.796;9.430;2022-11-20T06:31:04;0.30;;;0.30;;
70459;SDS011;57920;54.796;9.430;2022-11-20T06:33:31;0.67;;;0.40;;
70459;SDS011;57920;54.796;9.430;2022-11-20T06:35:58;0.30;;;0.30;;
70459;SDS011;57920;54.796;9.430;2022-11-20T06:38:25;0.50;;;0.37;;
70459;SDS011;57920;54.796;9.430;2022-11-20T06:40:51;0.30;;;0.20;;
70459;SDS011;57920;54.796;9.430;2022-11-20T06:43:16;1.67;;;0.40;;
70459;SDS011;57920;54.796;9.430;2022-11-20T06:45:42;0.30;;;0.30;;
70459;SDS011;57920;54.796;9.430;2022-11-20T06:48:07;0.30;;;0.30;;
70459;SDS011;57920;54.796;9.430;2022-11-20T06:50:34;0.37;;;0.33;;
70459;SDS011;57920;54.796;9.430;2022-11-20T06:53:01;0.97;;;0.60;;
70459;SDS011;57920;54.796;9.430;2022-11-20T06:55:28;0.17;;;0.17;;
70459;SDS011;57920;54.796;9.430;2022-11-20T06:57:54;0.50;;;0.20;;
70459;SDS011;57920;54.796;9.430;2022-11-20T07:00:19;1.03;;;0.30;;
70459;SDS011;57920;54.796;9.430;2022-11-20T07:02:45;0.30;;;0.20;;
70459;SDS011;57920;54.796;9.430;2022-11-20T07:05:10;0.30;;;0.30;;
70459;SDS011;57920;54.796;9.430;2022-11-20T07:07:36;0.73;;;0.30;;
70459;SDS011;57920;54.796;9.430;2022-11-20T07:10:02;0.50;;;0.30;;
70459;SDS011;57920;54.796;9.430;2022-11-20T07:12:27;1.17;;;0.33;;
70459;SDS011;57920;54.796;9.430;2022-11-20T07:14:53;0.30;;;0.20;;
70459;SDS011;57920;54.796;9.430;2022-11-20T07:17:18;0.40;;;0.40;;
70459;SDS011;57920;54.796;9.430;2022-11-20T07:19:44;0.30;;;0.20;;
70459;SDS011;57920;54.796;9.430;2022-11-20T07:22:09;0.70;;;0.30;;
70459;SDS011;57920;54.796;9.430;2022-11-20T07:24:35;0.57;;;0.30;;
70459;SDS011;57920;54.796;9.430;2022-11-20T07:27:00;0.23;;;0.23;;
70459;SDS011;57920;54.796;9.430;2022-11-20T07:29:26;0.27;;;0.20;;
70459;SDS011;57920;54.796;9.430;2022-11-20T07:31:51;0.73;;;0.27;;
70459;SDS011;57920;54.796;9.430;2022-11-20T07:34:17;0.27;;;0.27;;
70459;SDS011;57920;54.796;9.430;2022-11-20T07:36:42;0.40;;;0.40;;
70459;SDS011;57920;54.796;9.430;2022-11-20T07:39:08;0.90;;;0.30;;
70459;SDS011;57920;54.796;9.430;2022-11-20T07:41:33;0.97;;;0.40;;
70459;SDS011;57920;54.796;9.430;2022-11-20T07:43:59;0.40;;;0.40;;
70459;SDS011;57920;54.796;9.430;2022-11-20T07:46:25;0.40;;;0.27;;
70459;SDS011;57920;54.796;9.430;2022-11-20T07:48:50;0.30;;;0.20;;
70459;SDS011;57920;54.796;9.430;2022-11-20T07:51:16;0.30;;;0.30;;
70459;SDS011;57920;54.796;9.430;2022-11-20T07:53:41;0.30;;;0.30;;
70459;SDS011;57920;54.796;9.430;2022-11-20T07:56:07;0.20;;;0.20;;
70459;SDS011;57920;54.796;9.430;2022-11-20T07:58:32;1.13;;;0.30;;
70459;SDS011;57920;54.796;9.430;2022-11-20T08:01:03;0.40;;;0.27;;
70459;SDS011;57920;54.796;9.430;2022-11-20T08:03:32;0.50;;;0.40;;
70459;SDS011;57920;54.796;9.430;2022-11-20T08:05:59;0.77;;;0.30;;
70459;SDS011;57920;54.796;9.430;2022-11-20T08:08:28;0.47;;;0.47;;
70459;SDS011;57920;54.796;9.430;2022-11-20T08:10:53;1.20;;;0.23;;
70459;SDS011;57920;54.796;9.430;2022-11-20T08:13:41;0.20;;;0.20;;
70459;SDS011;57920;54.796;9.430;2022-11-20T08:16:25;0.37;;;0.37;;
70459;SDS011;57920;54.796;9.430;2022-11-20T08:18:50;0.20;;;0.20;;
70459;SDS011;57920;54.796;9.430;2022-11-20T08:21:16;0.50;;;0.40;;
70459;SDS011;57920;54.796;9.430;2022-11-20T08:23:41;0.50;;;0.40;;
70459;SDS011;57920;54.796;9.430;2022-11-20T08:26:07;0.57;;;0.40;;
70459;SDS011;57920;54.796;9.430;2022-11-20T08:28:32;0.10;;;0.10;;
70459;SDS011;57920;54.796;9.430;2022-11-20T08:30:59;0.53;;;0.40;;
70459;SDS011;57920;54.796;9.430;2022-11-20T08:33:25;0.50;;;0.40;;
70459;SDS011;57920;54.796;9.430;2022-11-20T08:35:50;0.70;;;0.20;;
70459;SDS011;57920;54.796;9.430;2022-11-20T08:38:16;0.40;;;0.23;;
70459;SDS011;57920;54.796;9.430;2022-11-20T08:40:41;2.00;;;0.40;;
70459;SDS011;57920;54.796;9.430;2022-11-20T08:43:27;0.30;;;0.30;;
70459;SDS011;57920;54.796;9.430;2022-11-20T08:45:53;0.20;;;0.20;;
70459;SDS011;57920;54.796;9.430;2022-11-20T08:48:20;0.73;;;0.50;;
70459;SDS011;57920;54.796;9.430;2022-11-20T08:50:46;0.30;;;0.23;;
70459;SDS011;57920;54.796;9.430;2022-11-20T08:53:11;0.30;;;0.30;;
70459;SDS011;57920;54.796;9.430;2022-11-20T08:55:37;0.67;;;0.30;;
70459;SDS011;57920;54.796;9.430;2022-11-20T08:58:04;0.40;;;0.40;;
70459;SDS011;57920;54.796;9.430;2022-11-20T09:00:31;0.40;;;0.40;;
70459;SDS011;57920;54.796;9.430;2022-11-20T09:02:57;0.87;;;0.43;;
70459;SDS011;57920;54.796;9.430;2022-11-20T09:05:23;0.77;;;0.27;;
70459;SDS011;57920;54.796;9.430;2022-11-20T09:07:49;1.10;;;0.40;;
70459;SDS011;57920;54.796;9.430;2022-11-20T09:10:15;0.37;;;0.30;;
70459;SDS011;57920;54.796;9.430;2022-11-20T09:12:40;0.47;;;0.40;;
70459;SDS011;57920;54.796;9.430;2022-11-20T09:15:06;0.40;;;0.40;;
70459;SDS011;57920;54.796;9.430;2022-11-20T09:17:32;0.40;;;0.30;;
70459;SDS011;57920;54.796;9.430;2022-11-20T09:19:57;0.30;;;0.30;;
70459;SDS011;57920;54.796;9.430;2022-11-20T09:22:23;0.40;;;0.40;;
70459;SDS011;57920;54.796;9.430;2022-11-20T09:24:49;0.30;;;0.30;;
70459;SDS011;57920;54.796;9.430;2022-11-20T09:27:14;0.97;;;0.43;;
70459;SDS011;57920;54.796;9.430;2022-11-20T09:29:45;0.30;;;0.30;;
70459;SDS011;57920;54.796;9.430;2022-11-20T09:32:11;0.60;;;0.40;;
70459;SDS011;57920;54.796;9.430;2022-11-20T09:34:36;0.87;;;0.30;;
70459;SDS011;57920;54.796;9.430;2022-11-20T09:37:02;0.50;;;0.40;;
70459;SDS011;57920;54.796;9.430;2022-11-20T09:39:27;0.70;;;0.70;;
70459;SDS011;57920;54.796;9.430;2022-11-20T09:44:32;0.40;;;0.40;;
70459;SDS011;57920;54.796;9.430;2022-11-20T09:50:05;0.67;;;0.30;;
70459;SDS011;57920;54.796;9.430;2022-11-20T09:55:41;0.40;;;0.30;;
70459;SDS011;57920;54.796;9.430;2022-11-20T09:58:07;0.40;;;0.40;;
70459;SDS011;57920;54.796;9.430;2022-11-20T10:01:01;0.40;;;0.40;;
70459;SDS011;57920;54.796;9.430;2022-11-20T10:06:37;1.03;;;0.40;;
70459;SDS011;57920;54.796;9.430;2022-11-20T10:17:48;0.60;;;0.40;;
70459;SDS011;57920;54.796;9.430;2022-11-20T10:23:34;0.33;;;0.33;;
70459;SDS011;57920;54.796;9.430;2022-11-20T10:26:16;0.33;;;0.33;;
70459;SDS011;57920;54.796;9.430;2022-11-20T10:31:33;0.60;;;0.43;;
70459;SDS011;57920;54.796;9.430;2022-11-20T10:34:03;0.20;;;0.20;;
70459;SDS011;57920;54.796;9.430;2022-11-20T10:36:38;0.97;;;0.40;;
70459;SDS011;57920;54.796;9.430;2022-11-20T10:39:14;0.60;;;0.30;;
70459;SDS011;57920;54.796;9.430;2022-11-20T10:41:46;0.47;;;0.47;;
70459;SDS011;57920;54.796;9.430;2022-11-20T10:44:17;0.63;;;0.40;;
70459;SDS011;57920;54.796;9.430;2022-11-20T10:47:04;0.27;;;0.27;;
70459;SDS011;57920;54.796;9.430;2022-11-20T10:49:34;0.30;;;0.30;;
70459;SDS011;57920;54.796;9.430;2022-11-20T10:54:50;0.37;;;0.30;;
70459;SDS011;57920;54.796;9.430;2022-11-20T11:00:09;0.50;;;0.40;;
70459;SDS011;57920;54.796;9.430;2022-11-20T11:02:40;0.50;;;0.40;;
70459;SDS011;57920;54.796;9.430;2022-11-20T11:07:45;0.50;;;0.50;;
70459;SDS011;57920;54.796;9.430;2022-11-20T11:13:06;0.23;;;0.20;;
70459;SDS011;57920;54.796;9.430;2022-11-20T11:15:39;0.50;;;0.30;;
70459;SDS011;57920;54.796;9.430;2022-11-20T11:18:22;0.30;;;0.30;;
70459;SDS011;57920;54.796;9.430;2022-11-20T11:20:52;0.60;;;0.50;;
70459;SDS011;57920;54.796;9.430;2022-11-20T11:23:26;0.40;;;0.40;;
70459;SDS011;57920;54.796;9.430;2022-11-20T11:25:59;0.37;;;0.37;;
70459;SDS011;57920;54.796;9.430;2022-11-20T11:28:28;0.30;;;0.30;;
70459;SDS011;57920;54.796;9.430;2022-11-20T11:30:54;0.30;;;0.30;;
70459;SDS011;57920;54.796;9.430;2022-11-20T11:33:22;0.73;;;0.40;;
70459;SDS011;57920;54.796;9.430;2022-11-20T11:35:53;0.33;;;0.30;;
70459;SDS011;57920;54.796;9.430;2022-11-20T11:38:35;0.30;;;0.30;;
70459;SDS011;57920;54.796;9.430;2022-11-20T11:41:20;0.40;;;0.37;;
70459;SDS011;57920;54.796;9.430;2022-11-20T11:44:14;0.30;;;0.30;;
70459;SDS011;57920;54.796;9.430;2022-11-20T11:47:09;0.40;;;0.27;;
70459;SDS011;57920;54.796;9.430;2022-11-20T11:49:45;0.47;;;0.40;;
70459;SDS011;57920;54.796;9.430;2022-11-20T11:54:51;0.53;;;0.40;;
70459;SDS011;57920;54.796;9.430;2022-11-20T11:59:57;0.40;;;0.30;;
70459;SDS011;57920;54.796;9.430;2022-11-20T12:05:23;0.40;;;0.30;;
70459;SDS011;57920;54.796;9.430;2022-11-20T12:07:57;0.73;;;0.27;;
70459;SDS011;57920;54.796;9.430;2022-11-20T12:10:37;0.17;;;0.17;;
70459;SDS011;57920;54.796;9.430;2022-11-20T12:15:55;0.97;;;0.50;;
70459;SDS011;57920;54.796;9.430;2022-11-20T12:18:21;0.27;;;0.27;;
70459;SDS011;57920;54.796;9.430;2022-11-20T12:23:28;0.33;;;0.30;;
70459;SDS011;57920;54.796;9.430;2022-11-20T12:26:08;0.93;;;0.40;;
70459;SDS011;57920;54.796;9.430;2022-11-20T12:31:56;1.40;;;0.47;;
70459;SDS011;57920;54.796;9.430;2022-11-20T12:43:28;0.80;;;0.30;;
70459;SDS011;57920;54.796;9.430;2022-11-20T12:46:18;0.43;;;0.37;;
70459;SDS011;57920;54.796;9.430;2022-11-20T12:54:46;0.60;;;0.30;;
70459;SDS011;57920;54.796;9.430;2022-11-20T12:57:21;0.47;;;0.30;;
70459;SDS011;57920;54.796;9.430;2022-11-20T13:08:36;0.30;;;0.30;;
70459;SDS011;57920;54.796;9.430;2022-11-20T13:14:00;0.30;;;0.30;;
70459;SDS011;57920;54.796;9.430;2022-11-20T13:16:47;0.50;;;0.50;;
70459;SDS011;57920;54.796;9.430;2022-11-20T13:19:41;0.47;;;0.40;;
70459;SDS011;57920;54.796;9.430;2022-11-20T13:22:10;0.50;;;0.50;;
70459;SDS011;57920;54.796;9.430;2022-11-20T13:24:36;1.47;;;0.70;;
70459;SDS011;57920;54.796;9.430;2022-11-20T13:29:34;0.60;;;0.53;;
70459;SDS011;57920;54.796;9.430;2022-11-20T13:34:50;0.87;;;0.67;;
70459;SDS011;57920;54.796;9.430;2022-11-20T13:37:28;0.50;;;0.50;;
70459;SDS011;57920;54.796;9.430;2022-11-20T13:40:04;0.50;;;0.50;;
70459;SDS011;57920;54.796;9.430;2022-11-20T13:42:46;0.97;;;0.80;;
70459;SDS011;57920;54.796;9.430;2022-11-20T13:45:40;1.03;;;0.67;;
70459;SDS011;57920;54.796;9.430;2022-11-20T13:48:24;0.97;;;0.97;;
70459;SDS011;57920;54.796;9.430;2022-11-20T14:02:13;0.77;;;0.53;;
70459;SDS011;57920;54.796;9.430;2022-11-20T14:04:42;0.97;;;0.70;;
70459;SDS011;57920;54.796;9.430;2022-11-20T14:07:14;1.57;;;0.90;;
70459;SDS011;57920;54.796;9.430;2022-11-20T14:09:49;0.73;;;0.70;;
70459;SDS011;57920;54.796;9.430;2022-11-20T14:12:20;0.73;;;0.60;;
70459;SDS011;57920;54.796;9.430;2022-11-20T14:14:51;0.50;;;0.50;;
70459;SDS011;57920;54.796;9.430;2022-11-20T14:17:19;0.60;;;0.50;;
70459;SDS011;57920;54.796;9.430;2022-11-20T14:19:45;0.87;;;0.70;;
70459;SDS011;57920;54.796;9.430;2022-11-20T14:22:20;1.10;;;0.60;;
70459;SDS011;57920;54.796;9.430;2022-11-20T14:25:32;0.60;;;0.60;;
70459;SDS011;57920;54.796;9.430;2022-11-20T14:27:43;0.90;;;0.70;;
70459;SDS011;57920;54.796;9.430;2022-11-20T14:32:43;0.60;;;0.60;;
70459;SDS011;57920;54.796;9.430;2022-11-20T14:35:13;0.40;;;0.40;;
70459;SDS011;57920;54.796;9.430;2022-11-20T14:37:55;1.17;;;0.80;;
70459;SDS011;57920;54.796;9.430;2022-11-20T14:40:27;0.83;;;0.63;;
70459;SDS011;57920;54.796;9.430;2022-11-20T14:42:54;0.77;;;0.50;;
70459;SDS011;57920;54.796;9.430;2022-11-20T14:45:21;0.47;;;0.40;;
70459;SDS011;57920;54.796;9.430;2022-11-20T14:47:47;0.87;;;0.60;;
70459;SDS011;57920;54.796;9.430;2022-11-20T14:50:16;0.50;;;0.50;;
70459;SDS011;57920;54.796;9.430;2022-11-20T14:52:50;0.70;;;0.70;;
70459;SDS011;57920;54.796;9.430;2022-11-20T14:55:30;0.80;;;0.43;;
70459;SDS011;57920;54.796;9.430;2022-11-20T14:58:02;2.83;;;0.57;;
70459;SDS011;57920;54.796;9.430;2022-11-20T15:00:30;0.67;;;0.67;;
70459;SDS011;57920;54.796;9.430;2022-11-20T15:02:56;1.43;;;0.80;;
70459;SDS011;57920;54.796;9.430;2022-11-20T15:05:36;0.50;;;0.50;;
70459;SDS011;57920;54.796;9.430;2022-11-20T15:08:13;0.80;;;0.67;;
70459;SDS011;57920;54.796;9.430;2022-11-20T15:10:44;0.83;;;0.70;;
70459;SDS011;57920;54.796;9.430;2022-11-20T15:13:12;0.63;;;0.63;;
70459;SDS011;57920;54.796;9.430;2022-11-20T15:18:10;1.53;;;0.77;;
70459;SDS011;57920;54.796;9.430;2022-11-20T15:20:41;0.40;;;0.40;;
70459;SDS011;57920;54.796;9.430;2022-11-20T15:23:09;0.90;;;0.60;;
70459;SDS011;57920;54.796;9.430;2022-11-20T15:25:37;0.50;;;0.50;;
70459;SDS011;57920;54.796;9.430;2022-11-20T15:28:04;0.93;;;0.70;;
70459;SDS011;57920;54.796;9.430;2022-11-20T15:30:35;1.30;;;0.70;;
70459;SDS011;57920;54.796;9.430;2022-11-20T15:33:00;0.87;;;0.70;;
70459;SDS011;57920;54.796;9.430;2022-11-20T15:35:26;1.47;;;0.50;;
70459;SDS011;57920;54.796;9.430;2022-11-20T15:37:51;0.60;;;0.60;;
70459;SDS011;57920;54.796;9.430;2022-11-20T15:40:17;0.60;;;0.43;;
70459;SDS011;57920;54.796;9.430;2022-11-20T15:42:42;0.63;;;0.50;;
70459;SDS011;57920;54.796;9.430;2022-11-20T15:45:27;1.30;;;0.70;;
70459;SDS011;57920;54.796;9.430;2022-11-20T15:47:55;1.13;;;0.97;;
70459;SDS011;57920;54.796;9.430;2022-11-20T15:50:22;0.70;;;0.70;;
70459;SDS011;57920;54.796;9.430;2022-11-20T15:52:54;1.43;;;0.90;;
70459;SDS011;57920;54.796;9.430;2022-11-20T15:55:19;0.87;;;0.87;;
70459;SDS011;57920;54.796;9.430;2022-11-20T15:57:45;0.93;;;0.70;;
70459;SDS011;57920;54.796;9.430;2022-11-20T16:00:11;1.23;;;0.80;;
70459;SDS011;57920;54.796;9.430;2022-11-20T16:02:37;0.80;;;0.73;;
70459;SDS011;57920;54.796;9.430;2022-11-20T16:05:02;1.30;;;0.80;;
70459;SDS011;57920;54.796;9.430;2022-11-20T16:07:28;1.10;;;1.00;;
70459;SDS011;57920;54.796;9.430;2022-11-20T16:09:54;1.83;;;0.97;;
70459;SDS011;57920;54.796;9.430;2022-11-20T16:12:21;1.63;;;0.97;;
70459;SDS011;57920;54.796;9.430;2022-11-20T16:15:05;1.33;;;1.13;;
70459;SDS011;57920;54.796;9.430;2022-11-20T16:17:51;1.30;;;1.20;;
70459;SDS011;57920;54.796;9.430;2022-11-20T16:20:16;1.13;;;0.87;;
70459;SDS011;57920;54.796;9.430;2022-11-20T16:22:42;1.30;;;1.00;;
70459;SDS011;57920;54.796;9.430;2022-11-20T16:25:07;2.30;;;1.53;;
70459;SDS011;57920;54.796;9.430;2022-11-20T16:27:33;2.27;;;1.47;;
70459;SDS011;57920;54.796;9.430;2022-11-20T16:29:58;2.00;;;1.57;;
70459;SDS011;57920;54.796;9.430;2022-11-20T16:32:24;1.27;;;1.10;;
70459;SDS011;57920;54.796;9.430;2022-11-20T16:34:50;1.60;;;1.50;;
70459;SDS011;57920;54.796;9.430;2022-11-20T16:37:15;1.53;;;1.43;;
70459;SDS011;57920;54.796;9.430;2022-11-20T16:39:41;1.43;;;1.30;;
70459;SDS011;57920;54.796;9.430;2022-11-20T16:42:06;1.73;;;1.60;;
70459;SDS011;57920;54.796;9.430;2022-11-20T16:44:32;2.13;;;1.13;;
70459;SDS011;57920;54.796;9.430;2022-11-20T16:46:58;1.47;;;0.87;;